Antioch, Illinois
Current Conditions -  °F | °C
As of 7:53 AM on Friday 19 Dec 2014 (Local Time) from KENW Reporting Station
Overcast Overcast  
Wind Chill: 20°   Ceiling: 2300
Heat Index: 27°   Visibility: 10mi
Dew Point: 21°   Wind: 6mph
Humidity: 78%   Direction: 330°NNW
Pressure: 30.29"   Gusts: NA
Location:  42.48°N, 88.1°W
Report Text: KENW 191353Z 33005KT 10SM OVC023 M03/M06 A3029 RMK AO2 SLP268 T10281061
Loading
Personal Weather Stations






























Interactive Weather Map New forecast layout! Learn more

10-Day Weather Forecast

Advertisements
Track Severe Weather on mobile